createdAt,value
2022-09-30T00:00:28.678Z,100.00
2022-09-30T00:15:24.270Z,100.00
2022-09-30T00:30:24.906Z,100.00
2022-09-30T00:45:24.207Z,100.00
2022-09-30T01:00:24.396Z,100.00
2022-09-30T01:15:24.372Z,100.00
2022-09-30T01:30:33.199Z,100.00
2022-09-30T01:45:33.389Z,100.00
2022-09-30T02:00:34.041Z,100.00
2022-09-30T02:15:23.509Z,100.00
2022-09-30T02:30:23.906Z,100.00
2022-09-30T02:45:23.373Z,100.00
2022-09-30T03:00:27.821Z,100.00
2022-09-30T03:15:23.963Z,100.00
2022-09-30T03:30:24.671Z,100.00
2022-09-30T03:45:23.346Z,100.00
2022-09-30T04:00:27.720Z,100.00
2022-09-30T04:15:23.535Z,100.00
2022-09-30T04:30:33.280Z,100.00
2022-09-30T04:45:23.630Z,100.00
2022-09-30T05:00:24.156Z,100.00
2022-09-30T05:15:23.948Z,100.00
2022-09-30T05:30:23.786Z,100.00
2022-09-30T05:45:23.887Z,100.00
2022-09-30T06:00:40.335Z,100.00
2022-09-30T06:15:23.908Z,100.00
2022-09-30T06:30:34.933Z,100.00
2022-09-30T06:45:31.728Z,100.00
2022-09-30T07:00:38.041Z,100.00
2022-09-30T07:15:24.095Z,100.00
2022-09-30T07:30:27.378Z,100.00
2022-09-30T07:45:24.001Z,100.00
2022-09-30T08:00:47.405Z,100.00
2022-09-30T08:15:24.691Z,100.00
2022-09-30T08:30:25.156Z,100.00
2022-09-30T08:45:24.481Z,100.00
2022-09-30T09:00:33.268Z,100.00
2022-09-30T09:15:23.090Z,100.00
2022-09-30T09:30:24.775Z,100.00
2022-09-30T09:45:23.419Z,100.00
2022-09-30T10:00:32.596Z,100.00
2022-09-30T10:15:23.237Z,100.00
2022-09-30T10:30:23.359Z,100.00
2022-09-30T10:45:23.464Z,100.00
2022-09-30T11:00:23.391Z,100.00
2022-09-30T11:15:23.457Z,100.00
2022-09-30T11:30:26.469Z,100.00
2022-09-30T11:45:26.052Z,98.50
2022-09-30T12:00:46.984Z,98.80
2022-09-30T12:15:23.421Z,95.25
2022-09-30T12:30:31.003Z,87.27
2022-09-30T12:45:23.590Z,84.50
2022-09-30T13:00:33.812Z,83.77
2022-09-30T13:15:23.945Z,79.20
2022-09-30T13:30:23.766Z,86.43
2022-09-30T13:45:23.871Z,91.03
2022-09-30T14:00:32.306Z,83.20
2022-09-30T14:15:23.809Z,81.35
2022-09-30T14:30:25.038Z,79.23
2022-09-30T14:45:23.881Z,71.10
2022-09-30T15:00:26.207Z,74.43
2022-09-30T15:15:24.045Z,69.20
2022-09-30T15:30:26.129Z,73.53
2022-09-30T15:45:24.121Z,91.07
2022-09-30T16:00:28.098Z,99.13
2022-09-30T16:15:24.092Z,100.00
2022-09-30T16:30:29.599Z,100.00
2022-09-30T16:45:24.180Z,100.00
2022-09-30T17:00:33.234Z,100.00
2022-09-30T17:15:23.583Z,100.00
2022-09-30T17:30:25.401Z,100.00
2022-09-30T17:45:23.656Z,100.00
2022-09-30T18:00:23.776Z,100.00
2022-09-30T18:15:23.319Z,100.00
2022-09-30T18:30:29.704Z,100.00
2022-09-30T18:45:23.614Z,100.00
2022-09-30T19:00:36.148Z,100.00
2022-09-30T19:15:23.417Z,100.00
2022-09-30T19:30:23.504Z,100.00
2022-09-30T19:45:25.226Z,100.00
2022-09-30T20:00:30.108Z,100.00
2022-09-30T20:15:24.095Z,100.00
2022-09-30T20:30:26.128Z,100.00
2022-09-30T20:45:23.889Z,100.00
2022-09-30T21:00:34.200Z,100.00
2022-09-30T21:15:23.854Z,100.00
2022-09-30T21:30:23.908Z,100.00
2022-09-30T21:45:23.887Z,100.00
2022-09-30T22:15:23.838Z,100.00
2022-09-30T22:30:24.009Z,100.00
2022-09-30T22:45:24.164Z,100.00
2022-09-30T23:00:25.679Z,100.00
2022-09-30T23:15:24.053Z,100.00
2022-09-30T23:30:26.887Z,100.00
2022-09-30T23:45:24.128Z,100.00
